Platinum, AK (99651)

06:01 AKST le 07 février 2016 (GMT -0900)
Cape Newenham | | Change Station
CLOSE
Current Station
Aéroport
Location: Cape Newenham,
Altitude: 538 ft
Stations météo à proximité

Alt. 538 ft 58.65 °N, 162.06 °W | Updated 6 minutes ago

Partly Cloudy
Partiellement nuageux
33 ° F
Paraît 21 ° F
N
22
Vent Variable Vent de Est
Gusts 30 mph

Aujourd'hui
Haut(e) -- | Bas -- ° F
--% Risque de précip.
Hier
Haut(e) -- | Bas -- ° F
Precip. -- pouce
Pression 29.71 pouce
Visibilité 10.0 Miles terrestres
Nuages Peu 23000 ft
Refroidissement éolien 21 ° F
Point de rosée 27 ° F
Humidité 78%
Précipitations 0.00 pouce
Profondeur de la couche neigeuse Non disponible.
9:40 AM 6:20 PM
Lune descendante, 1% visible
METAR PAEH 071455Z AUTO 10019G26KT 050V120 10SM FEW230 01/M03 A2968 RMK AO2 SLP060 T00051030 55001
Pression 29.71 pouce
Visibilité 10.0 Miles terrestres
Nuages Peu 23000 ft
Refroidissement éolien 21 ° F
Point de rosée 27 ° F
Humidité 78%
Précipitations 0.00 pouce
Profondeur de la couche neigeuse Non disponible.
9:40 AM 6:20 PM
Lune descendante, 1% visible
METAR PAEH 071455Z AUTO 10019G26KT 050V120 10SM FEW230 01/M03 A2968 RMK AO2 SLP060 T00051030 55001

10-Day Weather Forecast

Almanac

Astronomie

Feb. 07, 2016 Lever Coucher
Temps réel
Crépuscule civil
Crépuscule nautique
Crépuscule astronomique
Lune
Durée de lumière visible
Longueur du jour
Tomorrow will be .
, % of the Moon is Illuminated

Extrêmes aujourd'hui

State Highs State Lows

Community

WunderPhotos

Upload Photos

1,891,211 Photos téléchargées !

WunderBlog® & News

Nearby

Qualité de l'air

  Qualité de l'air Indice de la qualité de l'air Polluant
Not available.

Épaisseur de neige

Station Depth Altitude

Activité sismique

Ville Distance Mag. Time & Date
Minimum magnitude displayed is 2.5.

Températures des eaux côtières

Lieu Température

Stations

Stations météo à proximité

Emplacement de la station Température Refroidissement éolien Point de rosée Humidité Vent Precip. Alt. Mise à jour Type
                   

Watches & Warnings

There are currently no watches in effect.